Time;durP1;ratioP1;P1;durP2;ratioP2;P2;SDS_P1;SDS_P2;PMS_P1;PMS_P2;Temp;Humidity;BMP_temperature;BMP_pressure;BME280_temperature;BME280_humidity;BME280_pressure;Samples;Min_cycle;Max_cycle;Signal;HPM_P1;HPM_P2
2023/04/11 00:00:42;;;;;;;5.50;2.83;;;;;;;11.34;100.00;99328.56;12186215;19;20003;-80
2023/04/11 00:04:43;;;;;;;4.25;2.35;;;;;;;11.35;100.00;99352.28;12205213;19;20014;-81
2023/04/11 00:08:46;;;;;;;4.78;2.45;;;;;;;11.33;100.00;99361.91;12207463;19;20009;-80
2023/04/11 00:12:48;;;;;;;;;;;;;;;11.19;100.00;99356.06;12188125;19;20031;-81
2023/04/11 00:16:52;;;;;;;4.50;1.50;;;;;;;10.98;100.00;99370.78;12207262;19;19926;-82
2023/04/11 00:20:54;;;;;;;2.60;1.50;;;;;;;10.75;100.00;99350.72;12207720;19;20025;-82
2023/04/11 00:24:56;;;;;;;1.75;1.08;;;;;;;10.60;100.00;99342.34;12180701;19;20027;-82
2023/04/11 00:28:57;;;;;;;2.72;1.08;;;;;;;10.44;100.00;99317.41;12201960;19;20077;-83
2023/04/11 00:32:59;;;;;;;2.78;0.95;;;;;;;10.35;100.00;99310.72;12199375;19;20036;-83
2023/04/11 00:37:01;;;;;;;2.30;1.30;;;;;;;10.28;100.00;99290.78;12185115;19;20006;-81
2023/04/11 00:41:03;;;;;;;1.48;0.70;;;;;;;10.26;100.00;99325.97;12204576;19;20511;-82
2023/04/11 00:45:06;;;;;;;1.80;0.90;;;;;;;10.21;100.00;99312.19;12197318;19;20003;-83
2023/04/11 00:49:10;;;;;;;2.40;0.90;;;;;;;10.17;100.00;99311.00;12177160;19;20011;-82
2023/04/11 00:53:12;;;;;;;;;;;;;;;10.17;100.00;99319.28;12199602;19;20466;-81
2023/04/11 00:57:14;;;;;;;1.50;0.82;;;;;;;10.16;100.00;99306.63;12201864;19;19926;-82
2023/04/11 01:01:18;;;;;;;1.38;0.93;;;;;;;10.18;100.00;99329.22;12181767;19;20074;-80
2023/04/11 01:05:22;;;;;;;1.55;1.00;;;;;;;10.17;100.00;99347.66;12195054;19;20054;-81
2023/04/11 01:09:26;;;;;;;1.58;0.98;;;;;;;10.14;100.00;99355.59;12177222;19;21312;-82
2023/04/11 01:13:30;;;;;;;2.75;1.10;;;;;;;10.14;100.00;99356.44;12198776;19;20022;-82
2023/04/11 01:17:35;;;;;;;2.15;1.00;;;;;;;10.12;100.00;99353.09;12195359;19;20644;-83
2023/04/11 01:21:38;;;;;;;1.47;0.80;;;;;;;10.07;100.00;99366.81;12172341;19;20652;-83
2023/04/11 01:25:39;;;;;;;1.23;0.80;;;;;;;10.01;100.00;99373.34;12195992;19;20002;-82
2023/04/11 01:29:41;;;;;;;3.13;0.68;;;;;;;9.94;100.00;99395.56;12196135;19;20025;-83
2023/04/11 01:33:43;;;;;;;1.23;0.70;;;;;;;9.87;100.00;99388.56;12170906;19;20026;-79
2023/04/11 01:37:45;;;;;;;1.13;0.60;;;;;;;9.82;100.00;99376.41;12195228;19;20791;-81
2023/04/11 01:41:49;;;;;;;2.65;0.60;;;;;;;9.75;100.00;99361.19;12194150;19;20006;-83
2023/04/11 01:45:52;;;;;;;1.30;0.55;;;;;;;9.65;100.00;99374.81;12172658;19;20010;-83
2023/04/11 01:49:54;;;;;;;2.92;0.63;;;;;;;9.53;100.00;99389.50;12194340;19;20040;-83
2023/04/11 01:53:57;;;;;;;2.95;0.90;;;;;;;9.44;100.00;99393.78;12196849;19;20010;-83
2023/04/11 01:57:59;;;;;;;2.90;0.85;;;;;;;9.30;100.00;99400.69;12184286;19;20010;-84
2023/04/11 02:02:01;;;;;;;4.27;0.80;;;;;;;9.25;100.00;99404.22;12211743;19;20003;-83
2023/04/11 02:06:05;;;;;;;1.30;0.50;;;;;;;9.24;100.00;99401.72;12210672;19;20592;-83
2023/04/11 02:10:07;;;;;;;2.22;0.90;;;;;;;9.26;100.00;99399.56;12184029;19;20603;-83
2023/04/11 02:14:13;;;;;;;4.05;0.80;;;;;;;9.25;100.00;99403.38;12206110;19;20011;-82
2023/04/11 02:18:15;;;;;;;2.95;0.68;;;;;;;9.21;100.00;99393.97;12201771;19;20510;-82
2023/04/11 02:22:17;;;;;;;3.90;0.60;;;;;;;9.12;100.00;99399.88;12181243;19;20378;-82
2023/04/11 02:26:20;;;;;;;2.28;1.15;;;;;;;9.06;100.00;99400.88;12193452;19;20010;-82
2023/04/11 02:30:23;;;;;;;1.27;0.60;;;;;;;9.06;100.00;99400.88;12185338;19;20010;-83
2023/04/11 02:34:25;;;;;;;2.28;0.82;;;;;;;9.07;100.00;99391.56;12205652;19;20005;-82
2023/04/11 02:38:27;;;;;;;4.47;1.00;;;;;;;9.06;100.00;99397.31;12198036;19;20011;-82
2023/04/11 02:42:28;;;;;;;7.10;1.05;;;;;;;9.04;100.00;99414.06;12181472;19;20050;-82
2023/04/11 02:46:30;;;;;;;3.28;0.80;;;;;;;9.03;100.00;99412.38;12202213;19;20074;-81
2023/04/11 02:50:33;;;;;;;2.42;1.05;;;;;;;9.00;100.00;99410.13;12198593;19;20006;-82
2023/04/11 02:54:35;;;;;;;2.10;0.82;;;;;;;8.94;100.00;99402.06;12178238;19;20333;-81
2023/04/11 02:58:40;;;;;;;2.38;1.27;;;;;;;8.94;100.00;99405.63;12199784;19;20006;-81
2023/04/11 03:02:44;;;;;;;2.55;0.80;;;;;;;8.89;100.00;99405.53;12198998;19;20345;-81
2023/04/11 03:06:46;;;;;;;2.50;0.77;;;;;;;8.81;100.00;99398.56;12177933;19;20011;-81
2023/04/11 03:10:48;;;;;;;3.37;1.20;;;;;;;8.81;100.00;99394.97;12201020;19;20626;-81
2023/04/11 03:14:51;;;;;;;3.47;0.80;;;;;;;8.79;100.00;99405.38;12197117;19;20014;-81
2023/04/11 03:18:54;;;;;;;5.47;0.90;;;;;;;8.74;100.00;99413.50;12176129;19;22098;-82
2023/04/11 03:22:57;;;;;;;3.83;0.90;;;;;;;8.69;100.00;99407.94;12195198;19;20011;-81
2023/04/11 03:27:00;;;;;;;4.70;1.10;;;;;;;8.70;100.00;99388.47;12200171;19;20274;-83
2023/04/11 03:31:02;;;;;;;3.17;0.70;;;;;;;8.72;100.00;99367.06;12179486;19;20007;-81
2023/04/11 03:35:04;;;;;;;5.23;1.10;;;;;;;8.72;100.00;99374.50;12202141;19;20011;-82
2023/04/11 03:39:07;;;;;;;3.03;1.25;;;;;;;8.67;100.00;99369.72;12202590;19;20010;-82
2023/04/11 03:43:09;;;;;;;2.00;0.90;;;;;;;8.64;100.00;99364.72;12178393;19;20078;-82
2023/04/11 03:47:12;;;;;;;1.90;0.80;;;;;;;8.60;100.00;99364.41;12202608;19;20028;-83
2023/04/11 03:51:16;;;;;;;2.25;0.70;;;;;;;8.57;100.00;99395.09;12203760;19;20227;-81
2023/04/11 03:55:25;;;;;;;2.03;0.85;;;;;;;8.51;100.00;99398.00;12183882;19;20006;-83
2023/04/11 03:59:29;;;;;;;5.53;0.95;;;;;;;8.48;100.00;99410.31;12201782;19;20010;-83
2023/04/11 04:03:40;;;;;;;4.78;0.80;;;;;;;8.43;100.00;99408.28;12181501;19;20006;-82
2023/04/11 04:07:47;;;;;;;4.15;0.70;;;;;;;8.36;100.00;99395.78;12201026;19;20003;-82
2023/04/11 04:11:57;;;;;;;5.43;1.25;;;;;;;8.36;100.00;99402.09;12205340;19;20030;-82
2023/04/11 04:16:10;;;;;;;1.08;0.60;;;;;;;8.33;100.00;99375.13;12207846;19;20029;-81
2023/04/11 04:20:15;;;;;;;1.83;0.80;;;;;;;8.35;100.00;99383.13;12202347;19;20018;-81
2023/04/11 04:24:26;;;;;;;3.15;0.85;;;;;;;8.31;100.00;99398.41;12183040;19;20011;-82
2023/04/11 04:28:35;;;;;;;3.58;0.90;;;;;;;8.25;100.00;99385.69;12220600;19;20007;-83
2023/04/11 04:32:39;;;;;;;2.85;0.90;;;;;;;8.23;100.00;99375.75;12265928;19;20001;-80
2023/04/11 04:36:48;;;;;;;4.75;0.95;;;;;;;8.22;100.00;99376.03;12249457;19;20026;-80
2023/04/11 04:40:57;;;;;;;4.13;0.77;;;;;;;8.22;100.00;99390.56;12221810;19;20010;-81
2023/04/11 04:45:01;;;;;;;2.65;0.60;;;;;;;8.20;100.00;99389.16;12202449;19;20519;-83
2023/04/11 04:49:06;;;;;;;2.10;0.63;;;;;;;8.18;100.00;99405.88;12175928;19;20793;-82
2023/04/11 04:53:10;;;;;;;2.17;0.90;;;;;;;8.20;100.00;99406.44;12200781;19;20018;-82
2023/04/11 04:57:18;;;;;;;3.05;1.52;;;;;;;8.16;100.00;99410.75;12203347;19;20042;-83
2023/04/11 05:01:25;;;;;;;4.05;0.85;;;;;;;8.17;100.00;99408.84;12184197;19;20092;-82
2023/04/11 05:05:30;;;;;;;6.18;1.13;;;;;;;8.14;100.00;99412.91;12205852;19;20018;-83
2023/04/11 05:09:33;;;;;;;3.03;0.90;;;;;;;8.15;100.00;99416.47;12186052;19;20018;-83
2023/04/11 05:13:44;;;;;;;4.95;0.95;;;;;;;8.15;100.00;99432.94;12203510;19;20029;-82
2023/04/11 05:17:46;;;;;;;2.58;0.88;;;;;;;8.15;100.00;99444.78;12203501;19;20010;-83
2023/04/11 05:21:50;;;;;;;5.60;1.50;;;;;;;8.13;100.00;99441.44;12184352;19;20475;-83
2023/04/11 05:25:52;;;;;;;3.67;1.27;;;;;;;8.08;100.00;99435.84;12196276;19;20091;-82
2023/04/11 05:29:54;;;;;;;3.42;0.98;;;;;;;8.05;100.00;99449.22;12199776;19;20570;-82
2023/04/11 05:33:57;;;;;;;3.97;1.15;;;;;;;8.01;100.00;99448.88;12174359;19;20511;-80
2023/04/11 05:38:01;;;;;;;3.67;0.88;;;;;;;7.99;100.00;99448.28;12199128;19;20395;-83
2023/04/11 05:42:04;;;;;;;3.42;0.90;;;;;;;7.98;100.00;99461.16;12202965;19;20002;-82
2023/04/11 05:46:08;;;;;;;5.07;1.00;;;;;;;8.06;100.00;99464.59;12179694;19;20005;-84
2023/04/11 05:50:10;;;;;;;3.13;0.90;;;;;;;8.17;100.00;99470.06;12194561;19;20021;-83
2023/04/11 05:54:30;;;;;;;1.83;0.90;;;;;;;8.31;100.00;99483.53;12195393;19;20010;-83
2023/04/11 05:58:33;;;;;;;3.78;1.45;;;;;;;8.38;100.00;99475.97;12157550;19;20003;-82
2023/04/11 06:02:35;;;;;;;;;;;;;;;8.47;100.00;99471.78;12202911;19;20013;-82
2023/04/11 06:06:37;;;;;;;2.97;1.05;;;;;;;8.53;100.00;99484.53;12179229;19;19918;-82
2023/04/11 06:10:40;;;;;;;5.32;1.00;;;;;;;8.58;100.00;99492.88;12199220;19;20003;-83
2023/04/11 06:14:42;;;;;;;4.43;1.33;;;;;;;8.70;100.00;99497.50;12203536;19;20061;-82
2023/04/11 06:18:44;;;;;;;4.90;0.82;;;;;;;8.78;100.00;99508.09;12180433;19;20010;-82
2023/04/11 06:22:51;;;;;;;6.93;1.42;;;;;;;8.85;100.00;99503.28;12205767;19;20003;-82
2023/04/11 06:26:55;;;;;;;7.85;2.45;;;;;;;8.96;100.00;99502.41;12205218;19;20823;-81
2023/04/11 06:30:56;;;;;;;2.17;1.13;;;;;;;9.04;100.00;99498.41;12181313;19;20014;-82
2023/04/11 06:35:00;;;;;;;6.32;1.40;;;;;;;8.98;100.00;99502.13;12200588;19;20009;-81
2023/04/11 06:39:04;;;;;;;3.47;1.23;;;;;;;8.96;100.00;99526.31;12201305;19;20400;-81
2023/04/11 06:43:06;;;;;;;6.35;1.15;;;;;;;8.93;100.00;99530.38;12183236;19;20085;-81
2023/04/11 06:47:09;;;;;;;3.55;1.05;;;;;;;8.95;100.00;99528.19;12209033;19;20002;-81
2023/04/11 06:51:16;;;;;;;6.43;1.33;;;;;;;8.89;100.00;99534.69;12207802;19;21897;-80
2023/04/11 06:55:18;;;;;;;4.65;1.02;;;;;;;8.83;100.00;99546.66;12183201;19;20006;-81
2023/04/11 06:59:20;;;;;;;4.50;1.20;;;;;;;8.85;100.00;99558.25;12214706;19;20072;-80
2023/04/11 07:03:23;;;;;;;4.18;1.20;;;;;;;8.92;100.00;99556.16;12200568;19;20066;-80
2023/04/11 07:07:26;;;;;;;5.87;1.27;;;;;;;8.99;100.00;99564.28;12215975;19;20380;-83
2023/04/11 07:11:28;;;;;;;5.17;1.00;;;;;;;9.05;100.00;99553.13;12207779;19;20081;-81
2023/04/11 07:15:34;;;;;;;6.30;1.13;;;;;;;9.23;100.00;99559.50;12189202;19;20013;-81
2023/04/11 07:19:38;;;;;;;5.15;1.10;;;;;;;9.37;100.00;99569.13;12207680;19;20010;-79
2023/04/11 07:23:44;;;;;;;8.73;1.65;;;;;;;9.48;100.00;99568.19;12206547;19;20013;-80
2023/04/11 07:27:48;;;;;;;8.23;1.40;;;;;;;9.56;100.00;99570.53;12186955;19;20074;-80
2023/04/11 07:31:50;;;;;;;5.97;1.35;;;;;;;9.77;100.00;99581.88;12208680;19;20037;-80
2023/04/11 07:35:53;;;;;;;6.60;1.70;;;;;;;9.88;100.00;99577.41;12209980;19;20014;-80
2023/04/11 07:39:55;;;;;;;5.05;1.10;;;;;;;10.14;100.00;99575.84;12184711;19;20025;-80
2023/04/11 07:43:57;;;;;;;7.72;1.08;;;;;;;10.39;100.00;99581.75;12199550;19;20090;-83
2023/04/11 07:47:59;;;;;;;4.53;1.50;;;;;;;10.67;100.00;99574.41;12205916;19;20007;-80
2023/04/11 07:52:01;;;;;;;5.13;1.20;;;;;;;10.80;96.20;99592.50;12179582;19;20014;-81
2023/04/11 07:56:03;;;;;;;6.57;1.23;;;;;;;10.68;90.38;99604.47;12199174;19;20006;-80
2023/04/11 08:00:08;;;;;;;5.27;0.93;;;;;;;10.42;90.30;99592.28;12205692;19;20720;-79
2023/04/11 08:04:15;;;;;;;4.95;1.30;;;;;;;10.19;94.21;99603.47;12179855;19;20502;-85
2023/04/11 08:08:17;;;;;;;7.05;1.10;;;;;;;10.59;88.85;99596.88;12199900;19;20013;-81
2023/04/11 08:12:18;;;;;;;3.95;1.40;;;;;;;10.85;91.63;99607.16;12205271;19;20015;-80
2023/04/11 08:16:20;;;;;;;9.60;1.52;;;;;;;11.06;86.39;99610.16;12182002;19;20027;-81
2023/04/11 08:20:27;;;;;;;3.75;1.00;;;;;;;11.15;85.42;99620.50;12200393;19;19999;-80
2023/04/11 08:24:32;;;;;;;7.97;1.33;;;;;;;11.49;86.81;99612.03;12177495;19;20010;-80
2023/04/11 08:28:35;;;;;;;5.57;1.30;;;;;;;11.57;87.80;99608.78;12201994;19;20011;-81
2023/04/11 08:32:37;;;;;;;8.02;1.10;;;;;;;11.83;82.17;99620.06;12202075;19;20116;-81
2023/04/11 08:36:40;;;;;;;4.38;0.98;;;;;;;11.98;76.82;99625.72;12182757;19;20019;-79
2023/04/11 08:40:43;;;;;;;6.53;1.92;;;;;;;12.09;74.47;99613.66;12200752;19;20018;-82
2023/04/11 08:44:51;;;;;;;7.03;1.20;;;;;;;12.02;73.98;99621.34;12199692;19;20014;-79
2023/04/11 08:48:54;;;;;;;4.53;0.85;;;;;;;12.09;71.42;99618.38;12181032;19;20011;-79
2023/04/11 08:53:01;;;;;;;5.18;1.20;;;;;;;12.07;72.60;99623.31;12203043;19;20003;-82
2023/04/11 08:57:05;;;;;;;6.85;1.55;;;;;;;12.27;74.31;99612.41;12211550;19;20039;-80
2023/04/11 09:01:33;;;;;;;5.63;1.23;;;;;;;12.24;65.81;99612.94;12199223;19;20038;-81
2023/04/11 09:05:43;;;;;;;6.63;1.30;;;;;;;12.16;67.68;99627.25;12242181;19;20003;-80
2023/04/11 09:09:45;;;;;;;5.15;1.50;;;;;;;12.25;66.69;99622.88;12200788;19;20018;-79
2023/04/11 09:14:04;;;;;;;5.03;0.83;;;;;;;12.64;58.25;99639.19;12212863;19;20483;-82
2023/04/11 09:18:06;;;;;;;5.65;1.08;;;;;;;12.42;59.39;99633.78;12218895;19;20739;-81
2023/04/11 09:22:09;;;;;;;2.50;0.77;;;;;;;12.27;60.87;99636.44;12194449;19;20476;-81
2023/04/11 09:26:12;;;;;;;4.55;1.10;;;;;;;12.12;63.93;99628.06;12207311;19;20392;-81
2023/04/11 09:30:18;;;;;;;3.13;0.80;;;;;;;12.39;63.37;99636.25;12209182;19;20003;-82
2023/04/11 09:34:24;;;;;;;2.70;1.08;;;;;;;12.66;63.25;99648.03;12184939;19;20047;-80
2023/04/11 09:38:35;;;;;;;4.80;1.02;;;;;;;12.94;61.78;99643.22;12202821;19;20002;-79
2023/04/11 09:42:41;;;;;;;4.68;0.90;;;;;;;12.86;59.90;99649.25;12183065;19;20010;-83
2023/04/11 09:46:55;;;;;;;3.53;1.08;;;;;;;12.97;60.12;99637.16;12204730;19;20474;-80
2023/04/11 09:51:06;;;;;;;6.30;1.10;;;;;;;13.02;60.43;99642.69;12200836;19;21264;-78
2023/04/11 09:55:11;;;;;;;7.43;0.75;;;;;;;13.06;60.57;99649.34;12177005;19;20047;-80
2023/04/11 09:59:15;;;;;;;6.97;0.93;;;;;;;12.85;59.88;99647.56;12202319;19;20010;-79
2023/04/11 10:03:18;;;;;;;5.03;1.00;;;;;;;13.10;61.41;99628.34;12198547;19;20006;-81
2023/04/11 10:07:28;;;;;;;2.88;0.93;;;;;;;13.03;59.53;99635.22;12183509;19;20348;-81
2023/04/11 10:11:30;;;;;;;5.25;1.20;;;;;;;12.52;60.92;99630.25;12199084;19;20014;-79
2023/04/11 10:15:36;;;;;;;4.38;1.20;;;;;;;12.36;64.07;99634.84;12182195;19;20002;-80
2023/04/11 10:19:38;;;;;;;5.28;0.95;;;;;;;12.81;60.83;99643.69;12215419;19;20362;-79
2023/04/11 10:24:13;;;;;;;6.70;1.55;;;;;;;13.33;58.23;99637.31;12218481;19;20011;-81
2023/04/11 10:28:32;;;;;;;7.15;1.50;;;;;;;13.74;55.06;99616.06;12202963;19;20796;-80
2023/04/11 10:32:37;;;;;;;5.63;1.20;;;;;;;14.12;54.97;99620.22;12241955;19;20033;-79
2023/04/11 10:37:06;;;;;;;4.85;1.08;;;;;;;14.84;53.85;99625.66;12256889;19;19990;-79
2023/04/11 10:41:24;;;;;;;5.93;1.00;;;;;;;15.02;50.17;99638.94;12248674;19;20413;-79
2023/04/11 10:45:29;;;;;;;5.57;1.88;;;;;;;14.95;48.78;99624.50;12192103;19;20014;-82
2023/04/11 10:49:35;;;;;;;;;;;;;;;14.21;46.94;99619.66;12215182;19;20603;-81
2023/04/11 10:53:39;;;;;;;4.72;0.90;;;;;;;13.60;52.14;99628.78;12215914;19;19916;-80
2023/04/11 10:58:06;;;;;;;6.20;1.25;;;;;;;13.25;56.03;99629.50;12191203;19;20815;-83
2023/04/11 11:02:10;;;;;;;2.25;0.80;;;;;;;12.83;57.35;99650.63;12212791;19;20150;-79
2023/04/11 11:06:13;;;;;;;4.27;0.80;;;;;;;12.65;57.68;99643.63;12211454;19;20042;-80
2023/04/11 11:10:34;;;;;;;1.15;0.47;;;;;;;12.67;58.21;99648.84;12184658;19;20258;-79
2023/04/11 11:14:39;;;;;;;1.75;0.65;;;;;;;13.75;57.01;99644.59;12204918;19;20002;-81
2023/04/11 11:18:48;;;;;;;2.25;0.77;;;;;;;14.57;53.73;99629.63;12187248;19;20004;-81
2023/04/11 11:22:59;;;;;;;1.50;0.82;;;;;;;14.74;49.73;99645.09;12209170;19;20025;-83
2023/04/11 11:27:00;;;;;;;2.60;0.70;;;;;;;14.45;51.56;99651.22;12207172;19;20010;-82
2023/04/11 11:31:05;;;;;;;1.30;0.52;;;;;;;14.01;55.32;99646.28;12192458;19;20581;-84
2023/04/11 11:35:13;;;;;;;3.55;0.68;;;;;;;14.04;56.62;99647.63;12213771;19;20621;-81
2023/04/11 11:39:17;;;;;;;1.98;0.50;;;;;;;14.27;54.41;99629.63;12211788;19;19998;-81
2023/04/11 11:43:22;;;;;;;2.90;0.90;;;;;;;14.51;56.20;99639.03;12196156;19;20725;-80
2023/04/11 11:47:28;;;;;;;1.67;0.85;;;;;;;15.19;47.80;99626.63;12213225;19;20010;-81
2023/04/11 11:51:41;;;;;;;3.38;1.00;;;;;;;15.73;47.79;99653.56;12191362;19;20022;-87
2023/04/11 11:55:44;;;;;;;3.50;0.98;;;;;;;16.15;45.26;99644.66;12210204;19;20007;-82
2023/04/11 11:59:54;;;;;;;5.70;1.20;;;;;;;16.29;44.93;99635.63;12210813;19;20029;-80
2023/04/11 12:03:56;;;;;;;4.30;0.60;;;;;;;16.61;42.89;99644.22;12189777;19;20006;-81
2023/04/11 12:08:03;;;;;;;4.70;1.60;;;;;;;17.13;38.80;99624.16;12212440;19;20019;-84
2023/04/11 12:12:08;;;;;;;5.13;1.00;;;;;;;17.46;38.13;99617.59;12211065;19;20340;-82
2023/04/11 12:16:12;;;;;;;2.20;0.55;;;;;;;17.89;34.65;99636.22;12200086;19;20021;-83
2023/04/11 12:20:15;;;;;;;2.97;0.95;;;;;;;18.11;35.64;99622.47;12225872;19;21542;-82
2023/04/11 12:24:17;;;;;;;4.18;0.95;;;;;;;18.59;33.87;99613.81;12225300;19;20042;-85
2023/04/11 12:28:19;;;;;;;1.57;0.43;;;;;;;19.35;31.71;99617.03;12190897;19;20085;-83
2023/04/11 12:32:23;;;;;;;3.00;0.82;;;;;;;19.62;31.81;99611.69;12214839;19;20082;-81
2023/04/11 12:36:26;;;;;;;3.10;0.55;;;;;;;19.26;32.35;99613.31;12186361;19;20590;-80
2023/04/11 12:40:30;;;;;;;3.92;0.70;;;;;;;19.69;32.36;99604.59;12204146;19;20006;-81
2023/04/11 12:44:32;;;;;;;4.13;0.82;;;;;;;20.55;30.63;99613.91;12203262;19;20074;-80
2023/04/11 12:48:34;;;;;;;2.83;0.70;;;;;;;20.90;28.96;99600.91;12188583;19;20582;-87
2023/04/11 12:52:36;;;;;;;3.60;1.05;;;;;;;20.47;28.64;99591.13;12209661;19;20263;-83
2023/04/11 12:56:40;;;;;;;2.60;0.90;;;;;;;20.28;29.74;99610.09;12211008;19;20010;-82
2023/04/11 13:00:41;;;;;;;4.83;0.97;;;;;;;20.74;30.09;99603.31;12192328;19;20020;-80
2023/04/11 13:04:47;;;;;;;3.75;0.82;;;;;;;20.73;30.06;99595.22;12209231;19;20273;-80
2023/04/11 13:08:49;;;;;;;3.05;0.80;;;;;;;19.70;31.33;99597.00;12209371;19;20046;-80
2023/04/11 13:12:52;;;;;;;3.50;0.63;;;;;;;20.79;28.97;99594.78;12185968;19;20045;-82
2023/04/11 13:16:54;;;;;;;2.47;0.90;;;;;;;21.60;28.37;99585.94;12205726;19;20014;-83
2023/04/11 13:20:56;;;;;;;2.47;0.57;;;;;;;22.15;27.00;99575.97;12206347;19;20007;-80
2023/04/11 13:25:02;;;;;;;2.90;0.88;;;;;;;22.37;26.79;99574.13;12181950;19;20006;-81
2023/04/11 13:29:07;;;;;;;3.72;1.25;;;;;;;22.96;25.46;99588.31;12207336;19;20006;-80
2023/04/11 13:33:10;;;;;;;3.88;0.70;;;;;;;23.14;24.82;99573.03;12210498;19;20037;-82
2023/04/11 13:37:14;;;;;;;2.42;0.77;;;;;;;21.77;26.12;99573.03;12196971;19;20014;-80
2023/04/11 13:41:16;;;;;;;1.70;0.80;;;;;;;20.92;27.56;99577.03;12211733;19;20010;-79
2023/04/11 13:45:18;;;;;;;2.83;0.82;;;;;;;21.74;27.68;99582.94;12209286;19;20365;-85
2023/04/11 13:49:20;;;;;;;3.13;0.95;;;;;;;20.61;28.31;99581.81;12186999;19;20006;-79
2023/04/11 13:53:23;;;;;;;3.28;1.00;;;;;;;20.29;28.18;99577.38;12221806;19;20131;-81
2023/04/11 13:57:27;;;;;;;3.65;0.90;;;;;;;21.21;28.36;99585.97;12204761;19;20014;-79
2023/04/11 14:01:30;;;;;;;4.50;0.90;;;;;;;21.17;28.20;99578.22;12261811;19;20012;-80
2023/04/11 14:05:34;;;;;;;3.60;0.90;;;;;;;19.78;29.85;99571.06;12231513;19;20013;-79
2023/04/11 14:09:37;;;;;;;3.30;0.82;;;;;;;18.55;31.75;99581.25;12202378;19;20007;-80
2023/04/11 14:13:40;;;;;;;3.42;1.38;;;;;;;17.83;33.19;99592.84;12220891;19;20013;-79
2023/04/11 14:17:45;;;;;;;3.55;0.80;;;;;;;17.96;32.54;99583.69;12214925;19;20022;-80
2023/04/11 14:21:47;;;;;;;2.78;0.80;;;;;;;17.97;31.92;99572.25;12197398;19;20094;-82
2023/04/11 14:25:49;;;;;;;4.63;0.73;;;;;;;18.13;31.88;99572.81;12217636;19;20010;-84
2023/04/11 14:29:52;;;;;;;2.70;0.63;;;;;;;17.76;31.16;99563.38;12217855;19;20471;-80
2023/04/11 14:33:55;;;;;;;3.67;0.90;;;;;;;17.75;31.52;99577.59;12196853;19;20007;-79
2023/04/11 14:37:57;;;;;;;2.92;0.63;;;;;;;17.69;32.49;99573.22;12222712;19;20015;-80
2023/04/11 14:42:00;;;;;;;3.43;1.03;;;;;;;18.48;32.21;99561.31;12227157;19;20077;-80
2023/04/11 14:46:02;;;;;;;3.13;0.75;;;;;;;18.80;32.09;99571.56;12202935;19;20010;-80
2023/04/11 14:50:06;;;;;;;3.55;0.90;;;;;;;18.25;32.35;99557.53;12221648;19;20014;-79
2023/04/11 14:54:10;;;;;;;2.45;0.77;;;;;;;18.10;32.89;99567.84;12227492;19;20010;-78
2023/04/11 14:58:12;;;;;;;3.65;0.77;;;;;;;18.28;32.40;99562.50;12203936;19;20021;-81
2023/04/11 15:02:14;;;;;;;4.30;0.70;;;;;;;18.60;31.98;99576.41;12228469;19;20014;-83
2023/04/11 15:06:16;;;;;;;1.58;0.70;;;;;;;18.48;30.72;99575.25;12213824;19;20009;-84
2023/04/11 15:10:22;;;;;;;2.88;0.65;;;;;;;17.85;31.35;99562.72;12197606;19;20002;-77
2023/04/11 15:14:28;;;;;;;3.55;0.73;;;;;;;17.08;31.71;99561.03;12226401;19;20869;-80
2023/04/11 15:18:30;;;;;;;6.07;1.58;;;;;;;16.68;32.37;99570.69;12196800;19;20011;-77
2023/04/11 15:22:32;;;;;;;3.55;1.10;;;;;;;16.37;33.89;99571.03;12263850;19;20049;-78
2023/04/11 15:26:34;;;;;;;9.77;1.40;;;;;;;16.28;33.71;99567.25;12264410;19;19999;-78
2023/04/11 15:30:48;;;;;;;6.72;0.80;;;;;;;15.75;37.50;99562.44;12237072;19;20006;-78
2023/04/11 15:34:50;;;;;;;3.20;0.88;;;;;;;15.18;38.17;99561.13;12258404;19;20094;-77
2023/04/11 15:38:52;;;;;;;4.80;0.60;;;;;;;14.80;39.12;99560.75;12250470;19;20468;-79
2023/04/11 15:42:54;;;;;;;4.22;1.08;;;;;;;14.59;38.92;99566.38;12193536;19;20025;-78
2023/04/11 15:46:57;;;;;;;;;;;;;;;14.45;40.16;99581.91;12216016;19;20002;-78
2023/04/11 15:51:07;;;;;;;6.82;1.35;;;;;;;13.80;51.89;99603.03;12216544;19;19923;-81
2023/04/11 15:55:09;;;;;;;7.18;1.27;;;;;;;12.11;74.80;99576.69;12211467;19;20002;-79
2023/04/11 15:59:11;;;;;;;4.63;1.08;;;;;;;11.83;84.87;99565.66;12215575;19;20006;-80
2023/04/11 16:03:15;;;;;;;;;;;;;;;11.51;91.89;99562.94;12209321;19;20499;-79
2023/04/11 16:07:18;;;;;;;5.43;1.55;;;;;;;11.16;91.31;99561.47;12188021;19;19918;-79
2023/04/11 16:11:22;;;;;;;3.28;1.20;;;;;;;10.88;98.24;99559.78;12213971;19;20015;-81
2023/04/11 16:15:24;;;;;;;5.88;1.38;;;;;;;10.85;100.00;99565.81;12192429;19;20011;-83
2023/04/11 16:19:25;;;;;;;6.78;1.40;;;;;;;10.85;100.00;99563.03;12210767;19;20019;-80
2023/04/11 16:23:27;;;;;;;3.20;1.30;;;;;;;11.29;100.00;99565.72;12217606;19;20162;-82
2023/04/11 16:27:29;;;;;;;3.93;1.00;;;;;;;11.23;90.40;99565.94;12207104;19;20067;-80
2023/04/11 16:31:31;;;;;;;5.53;1.13;;;;;;;10.99;85.66;99570.94;12273818;19;19998;-79
2023/04/11 16:35:34;;;;;;;3.53;1.10;;;;;;;11.08;80.43;99570.22;12268782;19;20014;-79
2023/04/11 16:39:37;;;;;;;3.78;0.82;;;;;;;11.73;74.68;99560.06;12198973;19;20014;-79
2023/04/11 16:43:40;;;;;;;3.92;0.80;;;;;;;12.22;70.09;99546.06;12218369;19;20003;-79
2023/04/11 16:47:42;;;;;;;;;;;;;;;12.04;67.31;99549.28;12212726;19;20002;-78
2023/04/11 16:51:45;;;;;;;2.70;0.70;;;;;;;11.91;64.82;99547.00;12191051;19;19974;-78
2023/04/11 16:55:47;;;;;;;2.25;1.00;;;;;;;11.81;64.98;99548.56;12208991;19;20006;-78
2023/04/11 16:59:51;;;;;;;3.22;0.85;;;;;;;11.79;62.49;99556.25;12213841;19;20002;-79
2023/04/11 17:03:53;;;;;;;4.47;0.82;;;;;;;11.85;61.30;99541.41;12188343;19;20432;-78
2023/04/11 17:07:56;;;;;;;7.10;1.02;;;;;;;11.90;60.47;99537.03;12209287;19;20479;-78
2023/04/11 17:12:01;;;;;;;3.95;0.70;;;;;;;11.93;59.25;99526.31;12211413;19;20046;-79
2023/04/11 17:16:06;;;;;;;9.23;1.38;;;;;;;11.89;57.41;99533.44;12185329;19;20579;-78
2023/04/11 17:20:09;;;;;;;5.05;1.10;;;;;;;11.84;59.14;99525.94;12202326;19;20015;-78
2023/04/11 17:24:11;;;;;;;4.90;0.90;;;;;;;11.74;59.97;99525.84;12212035;19;20350;-78
2023/04/11 17:28:12;;;;;;;2.72;1.10;;;;;;;11.64;60.44;99531.28;12188914;19;20010;-78
2023/04/11 17:32:14;;;;;;;2.88;0.80;;;;;;;11.59;60.97;99525.72;12208735;19;20007;-79
2023/04/11 17:36:16;;;;;;;3.75;0.85;;;;;;;11.55;61.24;99527.34;12212002;19;20017;-78
2023/04/11 17:40:18;;;;;;;7.50;1.10;;;;;;;11.52;60.76;99536.16;12183325;19;20011;-79
2023/04/11 17:44:20;;;;;;;2.97;0.73;;;;;;;11.47;59.55;99530.59;12204674;19;20006;-78
2023/04/11 17:48:23;;;;;;;3.90;1.27;;;;;;;11.39;59.19;99538.25;12192778;19;20038;-78
2023/04/11 17:52:26;;;;;;;3.42;1.13;;;;;;;11.33;59.69;99533.78;12204761;19;20046;-78
2023/04/11 17:56:28;;;;;;;3.50;0.95;;;;;;;11.22;59.94;99537.53;12201101;19;20022;-78
2023/04/11 18:00:31;;;;;;;3.50;1.00;;;;;;;11.11;59.81;99535.78;12181416;19;20002;-78
2023/04/11 18:04:41;;;;;;;5.10;1.20;;;;;;;11.04;58.94;99546.19;12204267;19;20010;-78
2023/04/11 18:08:43;;;;;;;3.90;1.13;;;;;;;10.93;59.81;99548.81;12203009;19;20091;-78
2023/04/11 18:12:55;;;;;;;6.65;0.95;;;;;;;10.82;59.96;99543.44;12180382;19;20006;-78
2023/04/11 18:16:56;;;;;;;4.00;1.30;;;;;;;10.77;59.65;99541.47;12203484;19;20034;-78
2023/04/11 18:21:05;;;;;;;2.80;1.25;;;;;;;10.69;59.47;99545.50;12203518;19;20062;-80
2023/04/11 18:25:09;;;;;;;7.07;1.40;;;;;;;10.62;59.17;99544.88;12181003;19;20011;-78
2023/04/11 18:29:11;;;;;;;7.80;1.20;;;;;;;10.62;58.83;99550.38;12207836;19;20384;-78
2023/04/11 18:33:12;;;;;;;2.72;0.95;;;;;;;10.59;58.20;99550.03;12225143;19;20009;-78
2023/04/11 18:37:14;;;;;;;4.72;1.25;;;;;;;10.55;57.86;99546.16;12207658;19;20003;-78
2023/04/11 18:41:17;;;;;;;3.50;0.95;;;;;;;10.49;58.12;99546.06;12224369;19;20007;-78
2023/04/11 18:45:21;;;;;;;5.25;1.15;;;;;;;10.38;59.56;99546.19;12230618;19;20007;-80
2023/04/11 18:49:23;;;;;;;3.25;1.38;;;;;;;10.29;59.84;99545.81;12212760;19;20007;-78
2023/04/11 18:53:27;;;;;;;3.50;1.40;;;;;;;10.18;61.18;99539.31;12242547;19;20068;-78
2023/04/11 18:57:30;;;;;;;4.95;1.52;;;;;;;10.08;62.12;99544.66;12217657;19;20015;-78